sensor_id;sensor_type;location;lat;lon;timestamp;temperature;humidity
19805;DHT22;10062;51.052;13.756;2022-10-31T00:00:41;11.00;56.00
19805;DHT22;10062;51.052;13.756;2022-10-31T00:03:14;12.40;57.80
19805;DHT22;10062;51.052;13.756;2022-10-31T00:05:48;12.40;60.40
19805;DHT22;10062;51.052;13.756;2022-10-31T00:08:20;12.40;61.20
19805;DHT22;10062;51.052;13.756;2022-10-31T00:10:52;12.40;58.40
19805;DHT22;10062;51.052;13.756;2022-10-31T00:13:23;12.40;52.30
19805;DHT22;10062;51.052;13.756;2022-10-31T00:15:55;12.30;50.10
19805;DHT22;10062;51.052;13.756;2022-10-31T00:18:28;12.40;56.70
19805;DHT22;10062;51.052;13.756;2022-10-31T00:21:01;12.20;54.90
19805;DHT22;10062;51.052;13.756;2022-10-31T00:23:33;12.10;62.00
19805;DHT22;10062;51.052;13.756;2022-10-31T00:26:05;12.10;88.10
19805;DHT22;10062;51.052;13.756;2022-10-31T00:28:37;12.20;80.00
19805;DHT22;10062;51.052;13.756;2022-10-31T00:31:11;12.20;76.30
19805;DHT22;10062;51.052;13.756;2022-10-31T00:33:44;12.00;80.20
19805;DHT22;10062;51.052;13.756;2022-10-31T00:36:17;12.00;91.30
19805;DHT22;10062;51.052;13.756;2022-10-31T00:38:49;12.10;91.00
19805;DHT22;10062;51.052;13.756;2022-10-31T00:41:21;12.00;93.50
19805;DHT22;10062;51.052;13.756;2022-10-31T00:43:53;11.90;95.10
19805;DHT22;10062;51.052;13.756;2022-10-31T00:46:25;11.90;95.50
19805;DHT22;10062;51.052;13.756;2022-10-31T00:48:58;11.90;93.80
19805;DHT22;10062;51.052;13.756;2022-10-31T00:51:29;11.80;99.90
19805;DHT22;10062;51.052;13.756;2022-10-31T00:54:03;11.80;99.90
19805;DHT22;10062;51.052;13.756;2022-10-31T00:56:34;11.80;99.90
19805;DHT22;10062;51.052;13.756;2022-10-31T00:59:07;11.80;99.90
19805;DHT22;10062;51.052;13.756;2022-10-31T01:01:39;11.80;99.90
19805;DHT22;10062;51.052;13.756;2022-10-31T01:04:12;11.60;99.90
19805;DHT22;10062;51.052;13.756;2022-10-31T01:06:44;11.60;99.90
19805;DHT22;10062;51.052;13.756;2022-10-31T01:09:16;11.60;99.90
19805;DHT22;10062;51.052;13.756;2022-10-31T01:11:48;11.50;99.90
19805;DHT22;10062;51.052;13.756;2022-10-31T01:14:20;11.60;99.90
19805;DHT22;10062;51.052;13.756;2022-10-31T01:16:52;11.60;99.90
19805;DHT22;10062;51.052;13.756;2022-10-31T01:19:27;11.50;99.90
19805;DHT22;10062;51.052;13.756;2022-10-31T01:22:01;11.50;99.90
19805;DHT22;10062;51.052;13.756;2022-10-31T01:24:33;11.50;99.90
19805;DHT22;10062;51.052;13.756;2022-10-31T01:27:06;11.50;99.90
19805;DHT22;10062;51.052;13.756;2022-10-31T01:29:38;11.60;99.90
19805;DHT22;10062;51.052;13.756;2022-10-31T01:32:10;11.60;99.90
19805;DHT22;10062;51.052;13.756;2022-10-31T01:34:43;11.60;99.90
19805;DHT22;10062;51.052;13.756;2022-10-31T01:37:17;11.60;99.90
19805;DHT22;10062;51.052;13.756;2022-10-31T01:39:49;11.50;99.90
19805;DHT22;10062;51.052;13.756;2022-10-31T01:42:22;11.60;99.90
19805;DHT22;10062;51.052;13.756;2022-10-31T01:44:58;11.50;99.90
19805;DHT22;10062;51.052;13.756;2022-10-31T01:47:38;11.50;99.90
19805;DHT22;10062;51.052;13.756;2022-10-31T01:50:20;11.50;99.90
19805;DHT22;10062;51.052;13.756;2022-10-31T01:52:55;11.40;99.90
19805;DHT22;10062;51.052;13.756;2022-10-31T01:55:30;11.40;99.90
19805;DHT22;10062;51.052;13.756;2022-10-31T01:58:06;11.30;99.90
19805;DHT22;10062;51.052;13.756;2022-10-31T02:00:39;11.30;99.90
19805;DHT22;10062;51.052;13.756;2022-10-31T02:03:12;11.30;99.90
19805;DHT22;10062;51.052;13.756;2022-10-31T02:05:46;11.30;99.90
19805;DHT22;10062;51.052;13.756;2022-10-31T02:08:20;11.40;99.90
19805;DHT22;10062;51.052;13.756;2022-10-31T02:10:54;11.40;99.90
19805;DHT22;10062;51.052;13.756;2022-10-31T02:13:28;11.40;99.90
19805;DHT22;10062;51.052;13.756;2022-10-31T02:16:00;11.20;99.90
19805;DHT22;10062;51.052;13.756;2022-10-31T02:18:32;11.40;99.90
19805;DHT22;10062;51.052;13.756;2022-10-31T02:21:12;11.30;99.90
19805;DHT22;10062;51.052;13.756;2022-10-31T02:27:21;11.20;99.90
19805;DHT22;10062;51.052;13.756;2022-10-31T02:30:06;11.20;99.90
19805;DHT22;10062;51.052;13.756;2022-10-31T02:32:48;11.10;99.90
19805;DHT22;10062;51.052;13.756;2022-10-31T02:35:41;10.90;99.90
19805;DHT22;10062;51.052;13.756;2022-10-31T02:38:24;9.60;99.90
19805;DHT22;10062;51.052;13.756;2022-10-31T02:41:02;10.90;99.90
19805;DHT22;10062;51.052;13.756;2022-10-31T02:43:47;10.90;99.90
19805;DHT22;10062;51.052;13.756;2022-10-31T02:46:27;10.90;99.90
19805;DHT22;10062;51.052;13.756;2022-10-31T02:49:08;10.90;99.90
19805;DHT22;10062;51.052;13.756;2022-10-31T02:51:43;10.90;99.90
19805;DHT22;10062;51.052;13.756;2022-10-31T02:54:22;10.80;99.90
19805;DHT22;10062;51.052;13.756;2022-10-31T02:57:00;10.80;99.90
19805;DHT22;10062;51.052;13.756;2022-10-31T02:59:35;10.70;99.90
19805;DHT22;10062;51.052;13.756;2022-10-31T03:02:22;10.70;99.90
19805;DHT22;10062;51.052;13.756;2022-10-31T03:08:11;10.60;99.90
19805;DHT22;10062;51.052;13.756;2022-10-31T03:10:52;10.50;99.90
19805;DHT22;10062;51.052;13.756;2022-10-31T03:13:33;10.50;99.90
19805;DHT22;10062;51.052;13.756;2022-10-31T03:16:11;10.50;99.90
19805;DHT22;10062;51.052;13.756;2022-10-31T03:18:48;10.50;99.90
19805;DHT22;10062;51.052;13.756;2022-10-31T03:21:27;10.40;99.90
19805;DHT22;10062;51.052;13.756;2022-10-31T03:23:59;10.50;99.90
19805;DHT22;10062;51.052;13.756;2022-10-31T03:26:34;10.50;99.90
19805;DHT22;10062;51.052;13.756;2022-10-31T03:29:10;10.40;99.90
19805;DHT22;10062;51.052;13.756;2022-10-31T03:31:47;10.40;99.90
19805;DHT22;10062;51.052;13.756;2022-10-31T03:34:22;10.40;99.90
19805;DHT22;10062;51.052;13.756;2022-10-31T03:36:57;10.40;99.90
19805;DHT22;10062;51.052;13.756;2022-10-31T03:39:31;10.40;99.90
19805;DHT22;10062;51.052;13.756;2022-10-31T03:42:06;10.40;99.90
19805;DHT22;10062;51.052;13.756;2022-10-31T03:44:42;10.40;99.90
19805;DHT22;10062;51.052;13.756;2022-10-31T03:47:14;10.40;99.90
19805;DHT22;10062;51.052;13.756;2022-10-31T03:49:46;10.40;99.90
19805;DHT22;10062;51.052;13.756;2022-10-31T03:52:25;10.40;99.90
19805;DHT22;10062;51.052;13.756;2022-10-31T03:55:04;10.30;99.90
19805;DHT22;10062;51.052;13.756;2022-10-31T03:57:41;10.20;99.90
19805;DHT22;10062;51.052;13.756;2022-10-31T04:00:16;10.30;99.90
19805;DHT22;10062;51.052;13.756;2022-10-31T04:02:55;10.30;99.90
19805;DHT22;10062;51.052;13.756;2022-10-31T04:05:31;10.30;99.90
19805;DHT22;10062;51.052;13.756;2022-10-31T04:08:09;10.30;99.90
19805;DHT22;10062;51.052;13.756;2022-10-31T04:10:44;10.30;99.90
19805;DHT22;10062;51.052;13.756;2022-10-31T04:13:21;10.30;99.90
19805;DHT22;10062;51.052;13.756;2022-10-31T04:16:02;10.30;99.90
19805;DHT22;10062;51.052;13.756;2022-10-31T04:18:34;10.30;99.90
19805;DHT22;10062;51.052;13.756;2022-10-31T04:21:07;10.30;99.90
19805;DHT22;10062;51.052;13.756;2022-10-31T04:23:41;10.30;99.90
19805;DHT22;10062;51.052;13.756;2022-10-31T04:26:23;10.30;99.90
19805;DHT22;10062;51.052;13.756;2022-10-31T04:28:56;10.20;99.90
19805;DHT22;10062;51.052;13.756;2022-10-31T04:31:30;10.20;99.90
19805;DHT22;10062;51.052;13.756;2022-10-31T04:34:02;10.00;99.90
19805;DHT22;10062;51.052;13.756;2022-10-31T04:36:34;9.90;99.90
19805;DHT22;10062;51.052;13.756;2022-10-31T04:39:07;9.90;99.90
19805;DHT22;10062;51.052;13.756;2022-10-31T04:41:48;9.90;99.90
19805;DHT22;10062;51.052;13.756;2022-10-31T04:44:22;10.20;99.90
19805;DHT22;10062;51.052;13.756;2022-10-31T04:46:56;10.00;99.90
19805;DHT22;10062;51.052;13.756;2022-10-31T04:49:28;10.00;99.90
19805;DHT22;10062;51.052;13.756;2022-10-31T04:52:00;10.00;99.90
19805;DHT22;10062;51.052;13.756;2022-10-31T04:54:33;9.90;99.90
19805;DHT22;10062;51.052;13.756;2022-10-31T04:57:24;9.90;99.90
19805;DHT22;10062;51.052;13.756;2022-10-31T04:59:56;9.90;99.90
19805;DHT22;10062;51.052;13.756;2022-10-31T05:02:28;9.80;99.90
19805;DHT22;10062;51.052;13.756;2022-10-31T05:05:03;9.80;99.90
19805;DHT22;10062;51.052;13.756;2022-10-31T05:07:39;9.70;99.90
19805;DHT22;10062;51.052;13.756;2022-10-31T05:10:14;9.70;99.90
19805;DHT22;10062;51.052;13.756;2022-10-31T05:12:48;9.60;99.90
19805;DHT22;10062;51.052;13.756;2022-10-31T05:15:46;9.70;99.90
19805;DHT22;10062;51.052;13.756;2022-10-31T05:18:43;9.70;99.90
19805;DHT22;10062;51.052;13.756;2022-10-31T05:21:34;9.80;99.90
19805;DHT22;10062;51.052;13.756;2022-10-31T05:24:08;9.80;99.90
19805;DHT22;10062;51.052;13.756;2022-10-31T05:26:44;9.70;99.90
19805;DHT22;10062;51.052;13.756;2022-10-31T05:29:17;9.60;99.90
19805;DHT22;10062;51.052;13.756;2022-10-31T05:31:49;9.60;99.90
19805;DHT22;10062;51.052;13.756;2022-10-31T05:34:44;9.60;99.90
19805;DHT22;10062;51.052;13.756;2022-10-31T05:37:36;9.50;99.90
19805;DHT22;10062;51.052;13.756;2022-10-31T05:40:09;9.50;99.90
19805;DHT22;10062;51.052;13.756;2022-10-31T05:42:44;9.50;99.90
19805;DHT22;10062;51.052;13.756;2022-10-31T05:45:17;9.40;99.90
19805;DHT22;10062;51.052;13.756;2022-10-31T05:47:57;9.40;99.90
19805;DHT22;10062;51.052;13.756;2022-10-31T05:50:55;9.40;99.90
19805;DHT22;10062;51.052;13.756;2022-10-31T05:53:28;9.40;99.90
19805;DHT22;10062;51.052;13.756;2022-10-31T05:56:01;9.40;99.90
19805;DHT22;10062;51.052;13.756;2022-10-31T05:58:35;9.50;99.90
19805;DHT22;10062;51.052;13.756;2022-10-31T06:01:10;9.40;99.90
19805;DHT22;10062;51.052;13.756;2022-10-31T06:03:42;9.40;99.90
19805;DHT22;10062;51.052;13.756;2022-10-31T06:06:14;9.40;99.90
19805;DHT22;10062;51.052;13.756;2022-10-31T06:08:46;9.50;99.90
19805;DHT22;10062;51.052;13.756;2022-10-31T06:11:22;9.50;99.90
19805;DHT22;10062;51.052;13.756;2022-10-31T06:14:07;9.50;99.90
19805;DHT22;10062;51.052;13.756;2022-10-31T06:16:54;9.50;99.90
19805;DHT22;10062;51.052;13.756;2022-10-31T06:19:45;9.50;99.90
19805;DHT22;10062;51.052;13.756;2022-10-31T06:22:21;9.50;99.90
19805;DHT22;10062;51.052;13.756;2022-10-31T06:24:52;9.30;99.90
19805;DHT22;10062;51.052;13.756;2022-10-31T06:27:38;10.80;99.90
19805;DHT22;10062;51.052;13.756;2022-10-31T06:30:18;9.50;99.90
19805;DHT22;10062;51.052;13.756;2022-10-31T06:32:50;9.50;99.90
19805;DHT22;10062;51.052;13.756;2022-10-31T06:35:24;9.60;99.90
19805;DHT22;10062;51.052;13.756;2022-10-31T06:37:56;9.70;99.90
19805;DHT22;10062;51.052;13.756;2022-10-31T06:40:38;9.80;99.90
19805;DHT22;10062;51.052;13.756;2022-10-31T06:43:31;9.80;99.90
19805;DHT22;10062;51.052;13.756;2022-10-31T06:46:25;9.90;99.90
19805;DHT22;10062;51.052;13.756;2022-10-31T06:49:12;9.80;99.90
19805;DHT22;10062;51.052;13.756;2022-10-31T06:51:48;9.90;99.90
19805;DHT22;10062;51.052;13.756;2022-10-31T06:54:21;9.90;99.90
19805;DHT22;10062;51.052;13.756;2022-10-31T06:56:52;9.90;99.90
19805;DHT22;10062;51.052;13.756;2022-10-31T06:59:25;9.90;99.90
19805;DHT22;10062;51.052;13.756;2022-10-31T07:02:19;9.80;99.90
19805;DHT22;10062;51.052;13.756;2022-10-31T07:04:52;9.80;99.90
19805;DHT22;10062;51.052;13.756;2022-10-31T07:07:24;9.90;99.90
19805;DHT22;10062;51.052;13.756;2022-10-31T07:09:56;10.00;99.90
19805;DHT22;10062;51.052;13.756;2022-10-31T07:12:45;10.00;99.90
19805;DHT22;10062;51.052;13.756;2022-10-31T07:15:17;10.10;99.90
19805;DHT22;10062;51.052;13.756;2022-10-31T07:17:50;10.00;99.90
19805;DHT22;10062;51.052;13.756;2022-10-31T07:20:22;9.90;99.90
19805;DHT22;10062;51.052;13.756;2022-10-31T07:22:55;10.10;99.90
19805;DHT22;10062;51.052;13.756;2022-10-31T07:25:27;10.20;99.90
19805;DHT22;10062;51.052;13.756;2022-10-31T07:28:11;10.10;99.90
19805;DHT22;10062;51.052;13.756;2022-10-31T07:30:43;10.30;99.90
19805;DHT22;10062;51.052;13.756;2022-10-31T07:33:16;10.10;99.90
19805;DHT22;10062;51.052;13.756;2022-10-31T07:36:07;10.30;99.90
19805;DHT22;10062;51.052;13.756;2022-10-31T07:38:39;10.50;99.90
19805;DHT22;10062;51.052;13.756;2022-10-31T07:41:11;10.60;99.90
19805;DHT22;10062;51.052;13.756;2022-10-31T07:43:46;10.70;98.90
19805;DHT22;10062;51.052;13.756;2022-10-31T07:46:22;10.80;96.60
19805;DHT22;10062;51.052;13.756;2022-10-31T07:48:55;10.90;83.60
19805;DHT22;10062;51.052;13.756;2022-10-31T07:52:05;11.00;81.00
19805;DHT22;10062;51.052;13.756;2022-10-31T07:54:56;11.10;64.40
19805;DHT22;10062;51.052;13.756;2022-10-31T07:57:28;11.30;42.50
19805;DHT22;10062;51.052;13.756;2022-10-31T08:00:00;11.60;33.10
19805;DHT22;10062;51.052;13.756;2022-10-31T08:02:33;11.80;20.40
19805;DHT22;10062;51.052;13.756;2022-10-31T08:05:32;12.10;1.00
19805;DHT22;10062;51.052;13.756;2022-10-31T08:08:27;12.50;1.00
19805;DHT22;10062;51.052;13.756;2022-10-31T08:10:59;12.60;1.00
19805;DHT22;10062;51.052;13.756;2022-10-31T08:13:31;12.80;1.00
19805;DHT22;10062;51.052;13.756;2022-10-31T08:16:03;13.20;1.00
19805;DHT22;10062;51.052;13.756;2022-10-31T08:18:41;13.60;1.00
19805;DHT22;10062;51.052;13.756;2022-10-31T08:21:18;14.00;1.00
19805;DHT22;10062;51.052;13.756;2022-10-31T08:23:50;14.40;1.00
19805;DHT22;10062;51.052;13.756;2022-10-31T08:26:24;14.70;1.00
19805;DHT22;10062;51.052;13.756;2022-10-31T08:28:58;14.90;1.00
19805;DHT22;10062;51.052;13.756;2022-10-31T08:31:35;15.10;1.00
19805;DHT22;10062;51.052;13.756;2022-10-31T08:34:26;15.60;1.00
19805;DHT22;10062;51.052;13.756;2022-10-31T08:37:18;16.00;1.00
19805;DHT22;10062;51.052;13.756;2022-10-31T08:39:53;16.50;99.90
19805;DHT22;10062;51.052;13.756;2022-10-31T08:42:25;16.60;36.00
19805;DHT22;10062;51.052;13.756;2022-10-31T08:44:57;16.90;1.00
19805;DHT22;10062;51.052;13.756;2022-10-31T08:47:30;17.30;1.00
19805;DHT22;10062;51.052;13.756;2022-10-31T08:50:03;17.40;99.90
19805;DHT22;10062;51.052;13.756;2022-10-31T08:52:36;17.60;1.00
19805;DHT22;10062;51.052;13.756;2022-10-31T08:55:08;17.80;1.00
19805;DHT22;10062;51.052;13.756;2022-10-31T08:58:06;18.00;1.00
19805;DHT22;10062;51.052;13.756;2022-10-31T09:00:46;18.40;1.00
19805;DHT22;10062;51.052;13.756;2022-10-31T09:03:23;18.80;1.00
19805;DHT22;10062;51.052;13.756;2022-10-31T09:05:57;19.10;1.00
19805;DHT22;10062;51.052;13.756;2022-10-31T09:08:33;19.40;99.90
19805;DHT22;10062;51.052;13.756;2022-10-31T09:11:06;19.70;1.00
19805;DHT22;10062;51.052;13.756;2022-10-31T09:13:56;19.90;1.00
19805;DHT22;10062;51.052;13.756;2022-10-31T09:16:57;20.20;1.00
19805;DHT22;10062;51.052;13.756;2022-10-31T09:19:49;20.40;1.00
19805;DHT22;10062;51.052;13.756;2022-10-31T09:22:21;20.50;1.00
19805;DHT22;10062;51.052;13.756;2022-10-31T09:24:54;20.60;99.90
19805;DHT22;10062;51.052;13.756;2022-10-31T09:27:27;20.80;99.90
19805;DHT22;10062;51.052;13.756;2022-10-31T09:30:01;20.40;99.90
19805;DHT22;10062;51.052;13.756;2022-10-31T09:32:33;20.70;99.90
19805;DHT22;10062;51.052;13.756;2022-10-31T09:35:05;21.10;1.00
19805;DHT22;10062;51.052;13.756;2022-10-31T09:37:37;21.30;1.00
19805;DHT22;10062;51.052;13.756;2022-10-31T09:40:11;20.40;1.00
19805;DHT22;10062;51.052;13.756;2022-10-31T09:42:54;20.20;99.90
19805;DHT22;10062;51.052;13.756;2022-10-31T09:45:35;20.40;39.10
19805;DHT22;10062;51.052;13.756;2022-10-31T09:48:55;19.90;99.90
19805;DHT22;10062;51.052;13.756;2022-10-31T09:51:51;20.50;99.90
19805;DHT22;10062;51.052;13.756;2022-10-31T09:54:35;20.90;1.00
19805;DHT22;10062;51.052;13.756;2022-10-31T09:57:14;21.30;1.00
19805;DHT22;10062;51.052;13.756;2022-10-31T09:59:50;21.60;1.00
19805;DHT22;10062;51.052;13.756;2022-10-31T10:02:29;22.20;1.00
19805;DHT22;10062;51.052;13.756;2022-10-31T10:05:08;22.60;1.00
19805;DHT22;10062;51.052;13.756;2022-10-31T10:07:55;22.80;1.00
19805;DHT22;10062;51.052;13.756;2022-10-31T10:10:59;23.10;1.00
19805;DHT22;10062;51.052;13.756;2022-10-31T10:14:03;23.30;1.00
19805;DHT22;10062;51.052;13.756;2022-10-31T10:16:44;23.50;1.00
19805;DHT22;10062;51.052;13.756;2022-10-31T10:19:37;23.80;1.00
19805;DHT22;10062;51.052;13.756;2022-10-31T10:22:15;23.90;1.00
19805;DHT22;10062;51.052;13.756;2022-10-31T10:24:59;24.00;99.90
19805;DHT22;10062;51.052;13.756;2022-10-31T10:27:48;24.20;99.90
19805;DHT22;10062;51.052;13.756;2022-10-31T10:30:26;24.30;99.90
19805;DHT22;10062;51.052;13.756;2022-10-31T10:33:04;24.50;99.90
19805;DHT22;10062;51.052;13.756;2022-10-31T10:35:40;24.50;99.90
19805;DHT22;10062;51.052;13.756;2022-10-31T10:38:18;24.70;99.90
19805;DHT22;10062;51.052;13.756;2022-10-31T10:40:52;24.80;99.90
19805;DHT22;10062;51.052;13.756;2022-10-31T10:43:31;24.90;99.90
19805;DHT22;10062;51.052;13.756;2022-10-31T10:46:17;24.90;99.90
19805;DHT22;10062;51.052;13.756;2022-10-31T10:49:15;24.90;99.90
19805;DHT22;10062;51.052;13.756;2022-10-31T10:51:52;25.10;99.90
19805;DHT22;10062;51.052;13.756;2022-10-31T10:54:46;25.20;99.90
19805;DHT22;10062;51.052;13.756;2022-10-31T11:00:18;25.20;99.90
19805;DHT22;10062;51.052;13.756;2022-10-31T11:02:52;25.30;99.90
19805;DHT22;10062;51.052;13.756;2022-10-31T11:05:26;25.20;99.90
19805;DHT22;10062;51.052;13.756;2022-10-31T11:07:59;25.10;99.90
19805;DHT22;10062;51.052;13.756;2022-10-31T11:10:31;25.10;99.90
19805;DHT22;10062;51.052;13.756;2022-10-31T11:13:15;25.00;99.90
19805;DHT22;10062;51.052;13.756;2022-10-31T11:15:54;25.00;99.90
19805;DHT22;10062;51.052;13.756;2022-10-31T11:18:30;25.10;99.90
19805;DHT22;10062;51.052;13.756;2022-10-31T11:21:03;25.00;99.90
19805;DHT22;10062;51.052;13.756;2022-10-31T11:23:35;25.00;99.90
19805;DHT22;10062;51.052;13.756;2022-10-31T11:26:20;25.00;99.90
19805;DHT22;10062;51.052;13.756;2022-10-31T11:28:57;25.10;99.90
19805;DHT22;10062;51.052;13.756;2022-10-31T11:31:29;25.20;99.90
19805;DHT22;10062;51.052;13.756;2022-10-31T11:34:04;25.30;99.90
19805;DHT22;10062;51.052;13.756;2022-10-31T11:36:38;25.40;99.90
19805;DHT22;10062;51.052;13.756;2022-10-31T11:39:16;25.50;99.90
19805;DHT22;10062;51.052;13.756;2022-10-31T11:41:50;25.50;99.90
19805;DHT22;10062;51.052;13.756;2022-10-31T11:44:25;25.50;99.90
19805;DHT22;10062;51.052;13.756;2022-10-31T11:46:59;25.40;99.90
19805;DHT22;10062;51.052;13.756;2022-10-31T11:49:37;25.60;99.90
19805;DHT22;10062;51.052;13.756;2022-10-31T11:52:13;25.80;99.90
19805;DHT22;10062;51.052;13.756;2022-10-31T11:54:48;25.90;99.90
19805;DHT22;10062;51.052;13.756;2022-10-31T11:57:25;25.70;99.90
19805;DHT22;10062;51.052;13.756;2022-10-31T11:59:59;25.70;99.90
19805;DHT22;10062;51.052;13.756;2022-10-31T12:02:31;25.50;99.90
19805;DHT22;10062;51.052;13.756;2022-10-31T12:05:07;25.50;99.90
19805;DHT22;10062;51.052;13.756;2022-10-31T12:07:40;25.40;99.90
19805;DHT22;10062;51.052;13.756;2022-10-31T12:10:13;25.40;99.90
19805;DHT22;10062;51.052;13.756;2022-10-31T12:12:54;25.40;99.90
19805;DHT22;10062;51.052;13.756;2022-10-31T12:15:31;25.30;99.90
19805;DHT22;10062;51.052;13.756;2022-10-31T12:18:30;25.50;99.90
19805;DHT22;10062;51.052;13.756;2022-10-31T12:21:14;25.60;99.90
19805;DHT22;10062;51.052;13.756;2022-10-31T12:23:56;25.60;99.90
19805;DHT22;10062;51.052;13.756;2022-10-31T12:26:34;25.60;99.90
19805;DHT22;10062;51.052;13.756;2022-10-31T12:29:18;25.80;99.90
19805;DHT22;10062;51.052;13.756;2022-10-31T12:32:02;25.60;99.90
19805;DHT22;10062;51.052;13.756;2022-10-31T12:34:57;25.50;99.90
19805;DHT22;10062;51.052;13.756;2022-10-31T12:37:45;25.80;99.90
19805;DHT22;10062;51.052;13.756;2022-10-31T12:40:36;25.80;99.90
19805;DHT22;10062;51.052;13.756;2022-10-31T12:43:23;25.90;99.90
19805;DHT22;10062;51.052;13.756;2022-10-31T12:45:57;25.80;99.90
19805;DHT22;10062;51.052;13.756;2022-10-31T12:48:55;25.90;99.90
19805;DHT22;10062;51.052;13.756;2022-10-31T12:51:39;25.90;99.90
19805;DHT22;10062;51.052;13.756;2022-10-31T12:54:30;25.80;99.90
19805;DHT22;10062;51.052;13.756;2022-10-31T12:57:12;25.80;99.90
19805;DHT22;10062;51.052;13.756;2022-10-31T12:59:50;25.70;99.90
19805;DHT22;10062;51.052;13.756;2022-10-31T13:02:26;25.70;99.90
19805;DHT22;10062;51.052;13.756;2022-10-31T13:05:02;25.70;99.90
19805;DHT22;10062;51.052;13.756;2022-10-31T13:07:39;25.50;99.90
19805;DHT22;10062;51.052;13.756;2022-10-31T13:10:18;25.50;99.90
19805;DHT22;10062;51.052;13.756;2022-10-31T13:12:54;25.50;99.90
19805;DHT22;10062;51.052;13.756;2022-10-31T13:15:27;25.70;99.90
19805;DHT22;10062;51.052;13.756;2022-10-31T13:18:04;25.90;99.90
19805;DHT22;10062;51.052;13.756;2022-10-31T13:20:40;26.10;99.90
19805;DHT22;10062;51.052;13.756;2022-10-31T13:23:18;26.10;99.90
19805;DHT22;10062;51.052;13.756;2022-10-31T13:25:54;26.20;99.90
19805;DHT22;10062;51.052;13.756;2022-10-31T13:28:36;26.40;99.90
19805;DHT22;10062;51.052;13.756;2022-10-31T13:31:10;26.30;99.90
19805;DHT22;10062;51.052;13.756;2022-10-31T13:33:46;26.10;99.90
19805;DHT22;10062;51.052;13.756;2022-10-31T13:36:25;26.00;99.90
19805;DHT22;10062;51.052;13.756;2022-10-31T13:39:01;26.10;99.90
19805;DHT22;10062;51.052;13.756;2022-10-31T13:41:43;26.30;99.90
19805;DHT22;10062;51.052;13.756;2022-10-31T13:44:22;26.30;99.90
19805;DHT22;10062;51.052;13.756;2022-10-31T13:46:56;26.40;99.90
19805;DHT22;10062;51.052;13.756;2022-10-31T13:49:38;26.40;99.90
19805;DHT22;10062;51.052;13.756;2022-10-31T13:52:16;26.40;99.90
19805;DHT22;10062;51.052;13.756;2022-10-31T13:54:50;26.40;99.90
19805;DHT22;10062;51.052;13.756;2022-10-31T13:57:31;27.10;99.90
19805;DHT22;10062;51.052;13.756;2022-10-31T14:00:07;26.00;99.90
19805;DHT22;10062;51.052;13.756;2022-10-31T14:02:54;25.80;99.90
19805;DHT22;10062;51.052;13.756;2022-10-31T14:05:30;25.70;99.90
19805;DHT22;10062;51.052;13.756;2022-10-31T14:08:04;25.50;99.90
19805;DHT22;10062;51.052;13.756;2022-10-31T14:10:38;25.40;99.90
19805;DHT22;10062;51.052;13.756;2022-10-31T14:13:22;25.20;99.90
19805;DHT22;10062;51.052;13.756;2022-10-31T14:15:56;25.00;99.90
19805;DHT22;10062;51.052;13.756;2022-10-31T14:18:31;24.80;99.90
19805;DHT22;10062;51.052;13.756;2022-10-31T14:21:14;24.60;99.90
19805;DHT22;10062;51.052;13.756;2022-10-31T14:23:46;24.40;1.00
19805;DHT22;10062;51.052;13.756;2022-10-31T14:26:30;24.10;1.00
19805;DHT22;10062;51.052;13.756;2022-10-31T14:29:25;23.90;1.00
19805;DHT22;10062;51.052;13.756;2022-10-31T14:32:06;23.70;1.00
19805;DHT22;10062;51.052;13.756;2022-10-31T14:34:50;23.50;1.00
19805;DHT22;10062;51.052;13.756;2022-10-31T14:40:26;23.10;1.00
19805;DHT22;10062;51.052;13.756;2022-10-31T14:43:28;23.00;1.00
19805;DHT22;10062;51.052;13.756;2022-10-31T14:46:06;22.80;1.00
19805;DHT22;10062;51.052;13.756;2022-10-31T14:51:40;22.50;1.00
19805;DHT22;10062;51.052;13.756;2022-10-31T14:54:17;22.40;99.90
19805;DHT22;10062;51.052;13.756;2022-10-31T14:56:53;22.60;1.00
19805;DHT22;10062;51.052;13.756;2022-10-31T14:59:31;22.10;99.90
19805;DHT22;10062;51.052;13.756;2022-10-31T15:02:12;22.00;99.90
19805;DHT22;10062;51.052;13.756;2022-10-31T15:04:45;22.00;99.90
19805;DHT22;10062;51.052;13.756;2022-10-31T15:07:21;21.90;99.90
19805;DHT22;10062;51.052;13.756;2022-10-31T15:09:58;21.70;99.90
19805;DHT22;10062;51.052;13.756;2022-10-31T15:12:32;21.70;1.00
19805;DHT22;10062;51.052;13.756;2022-10-31T15:15:11;21.60;1.00
19805;DHT22;10062;51.052;13.756;2022-10-31T15:17:49;21.60;1.00
19805;DHT22;10062;51.052;13.756;2022-10-31T15:20:25;21.50;1.00
19805;DHT22;10062;51.052;13.756;2022-10-31T15:22:58;21.40;99.90
19805;DHT22;10062;51.052;13.756;2022-10-31T15:25:34;21.20;99.90
19805;DHT22;10062;51.052;13.756;2022-10-31T15:28:13;21.20;99.90
19805;DHT22;10062;51.052;13.756;2022-10-31T15:30:53;21.10;99.90
19805;DHT22;10062;51.052;13.756;2022-10-31T15:33:28;21.00;1.00
19805;DHT22;10062;51.052;13.756;2022-10-31T15:36:01;20.90;1.00
19805;DHT22;10062;51.052;13.756;2022-10-31T15:38:33;20.80;1.00
19805;DHT22;10062;51.052;13.756;2022-10-31T15:41:21;20.70;1.00
19805;DHT22;10062;51.052;13.756;2022-10-31T15:43:54;20.60;1.00
19805;DHT22;10062;51.052;13.756;2022-10-31T15:46:26;20.50;1.00
19805;DHT22;10062;51.052;13.756;2022-10-31T15:49:00;20.40;1.00
19805;DHT22;10062;51.052;13.756;2022-10-31T15:51:33;20.30;1.00
19805;DHT22;10062;51.052;13.756;2022-10-31T15:54:12;20.20;1.00
19805;DHT22;10062;51.052;13.756;2022-10-31T15:56:45;20.10;99.90
19805;DHT22;10062;51.052;13.756;2022-10-31T15:59:20;20.00;1.00
19805;DHT22;10062;51.052;13.756;2022-10-31T16:01:59;19.90;1.00
19805;DHT22;10062;51.052;13.756;2022-10-31T16:04:33;19.40;1.00
19805;DHT22;10062;51.052;13.756;2022-10-31T16:07:13;19.60;1.00
19805;DHT22;10062;51.052;13.756;2022-10-31T16:09:53;19.50;1.00
19805;DHT22;10062;51.052;13.756;2022-10-31T16:12:29;19.40;1.00
19805;DHT22;10062;51.052;13.756;2022-10-31T16:15:04;19.40;1.00
19805;DHT22;10062;51.052;13.756;2022-10-31T16:17:41;19.30;1.00
19805;DHT22;10062;51.052;13.756;2022-10-31T16:20:20;19.10;1.00
19805;DHT22;10062;51.052;13.756;2022-10-31T16:22:53;19.00;99.90
19805;DHT22;10062;51.052;13.756;2022-10-31T16:25:27;19.00;99.90
19805;DHT22;10062;51.052;13.756;2022-10-31T16:28:03;18.90;99.90
19805;DHT22;10062;51.052;13.756;2022-10-31T16:30:37;18.80;1.00
19805;DHT22;10062;51.052;13.756;2022-10-31T16:33:26;18.80;1.00
19805;DHT22;10062;51.052;13.756;2022-10-31T16:36:00;18.50;1.00
19805;DHT22;10062;51.052;13.756;2022-10-31T16:38:32;18.60;1.00
19805;DHT22;10062;51.052;13.756;2022-10-31T16:41:04;18.50;1.00